createdAt,value
2018-10-05T00:01:35.873Z,99.90
2018-10-05T00:04:04.716Z,99.90
2018-10-05T00:06:34.320Z,99.90
2018-10-05T00:09:03.158Z,99.90
2018-10-05T00:11:31.988Z,99.90
2018-10-05T00:14:00.852Z,99.90
2018-10-05T00:16:29.690Z,99.90
2018-10-05T00:18:59.272Z,99.90
2018-10-05T00:23:57.544Z,99.90
2018-10-05T00:26:26.373Z,99.90
2018-10-05T00:28:55.945Z,99.90
2018-10-05T00:31:24.803Z,99.90
2018-10-05T00:33:53.640Z,99.90
2018-10-05T00:36:22.469Z,99.90
2018-10-05T00:38:51.305Z,99.90
2018-10-05T00:41:20.136Z,99.90
2018-10-05T00:43:48.973Z,99.90
2018-10-05T00:46:17.811Z,99.90
2018-10-05T00:48:47.385Z,99.90
2018-10-05T00:51:16.285Z,99.90
2018-10-05T00:53:45.087Z,99.90
2018-10-05T00:56:14.669Z,99.90
2018-10-05T00:58:43.500Z,99.90
2018-10-05T01:01:12.341Z,99.90
2018-10-05T01:03:41.174Z,99.90
2018-10-05T01:06:10.024Z,99.90
2018-10-05T01:08:38.847Z,99.90
2018-10-05T01:11:07.677Z,99.90
2018-10-05T01:13:36.502Z,99.90
2018-10-05T01:16:06.077Z,99.90
2018-10-05T01:18:34.916Z,99.90
2018-10-05T01:21:04.508Z,99.90
2018-10-05T01:23:34.077Z,99.90
2018-10-05T01:26:02.901Z,99.90
2018-10-05T01:28:32.471Z,99.90
2018-10-05T01:31:01.322Z,99.90
2018-10-05T01:33:30.175Z,99.90
2018-10-05T01:38:28.435Z,99.90
2018-10-05T01:40:57.267Z,99.90
2018-10-05T01:43:26.839Z,99.90
2018-10-05T01:45:55.683Z,99.90
2018-10-05T01:48:24.528Z,99.90
2018-10-05T01:50:53.360Z,99.90
2018-10-05T01:53:22.187Z,99.90
2018-10-05T01:55:51.008Z,99.90
2018-10-05T01:58:19.839Z,99.90
2018-10-05T02:00:48.680Z,99.90
2018-10-05T02:03:17.499Z,99.90
2018-10-05T02:05:46.344Z,99.90
2018-10-05T02:08:15.165Z,99.90
2018-10-05T02:10:44.749Z,99.90
2018-10-05T02:13:13.643Z,99.90
2018-10-05T02:15:42.483Z,99.90
2018-10-05T02:18:12.051Z,99.90
2018-10-05T02:20:41.623Z,99.90
2018-10-05T02:23:10.453Z,99.90
2018-10-05T02:25:40.045Z,99.90
2018-10-05T02:28:08.867Z,99.90
2018-10-05T02:30:37.729Z,99.90
2018-10-05T02:33:07.440Z,99.90
2018-10-05T02:35:36.171Z,99.90
2018-10-05T02:38:04.983Z,99.90
2018-10-05T02:40:33.819Z,99.90
2018-10-05T02:43:03.402Z,99.90
2018-10-05T02:45:32.224Z,99.90
2018-10-05T02:48:01.054Z,99.90
2018-10-05T02:50:29.882Z,99.90
2018-10-05T02:52:58.731Z,99.90
2018-10-05T02:55:27.568Z,99.90
2018-10-05T02:57:57.156Z,99.90
2018-10-05T03:00:37.792Z,99.90
2018-10-05T03:03:06.677Z,99.90
2018-10-05T03:05:35.496Z,99.90
2018-10-05T03:08:04.324Z,99.90
2018-10-05T03:10:33.153Z,99.90
2018-10-05T03:13:01.975Z,99.90
2018-10-05T03:15:31.558Z,99.90
2018-10-05T03:18:00.448Z,99.90
2018-10-05T03:20:29.292Z,99.90
2018-10-05T03:22:58.123Z,99.90
2018-10-05T03:25:26.947Z,99.90
2018-10-05T03:27:56.532Z,99.90
2018-10-05T03:30:25.365Z,99.90
2018-10-05T03:32:54.325Z,99.90
2018-10-05T03:35:23.163Z,99.90
2018-10-05T03:37:52.005Z,99.90
2018-10-05T03:40:20.853Z,99.90
2018-10-05T03:42:49.695Z,99.90
2018-10-05T03:45:18.533Z,99.90
2018-10-05T03:47:47.369Z,99.90
2018-10-05T03:50:16.213Z,99.90
2018-10-05T03:52:45.048Z,99.90
2018-10-05T03:55:14.623Z,99.90
2018-10-05T03:57:43.524Z,99.90
2018-10-05T04:00:12.378Z,99.90
2018-10-05T04:02:41.207Z,99.90
2018-10-05T04:05:10.050Z,99.90
2018-10-05T04:07:38.898Z,99.90
2018-10-05T04:10:08.486Z,99.90
2018-10-05T04:12:37.324Z,99.90
2018-10-05T04:15:06.164Z,99.90
2018-10-05T04:17:35.014Z,99.90
2018-10-05T04:20:03.837Z,99.90
2018-10-05T04:22:32.660Z,99.90
2018-10-05T04:25:01.493Z,99.90
2018-10-05T04:27:30.329Z,99.90
2018-10-05T04:29:59.906Z,99.90
2018-10-05T04:32:28.740Z,99.90
2018-10-05T04:34:57.583Z,99.90
2018-10-05T04:37:26.420Z,99.90
2018-10-05T04:39:55.251Z,99.90
2018-10-05T04:42:24.069Z,99.90
2018-10-05T04:44:53.643Z,99.90
2018-10-05T04:47:22.470Z,99.90
2018-10-05T04:49:52.070Z,99.90
2018-10-05T04:52:21.659Z,99.90
2018-10-05T04:54:50.509Z,99.90
2018-10-05T04:57:19.329Z,99.90
2018-10-05T04:59:48.155Z,99.90
2018-10-05T05:02:17.729Z,99.90
2018-10-05T05:04:46.559Z,99.90
2018-10-05T05:07:15.386Z,99.90
2018-10-05T05:09:45.137Z,99.90
2018-10-05T05:12:14.126Z,99.90
2018-10-05T05:14:42.821Z,99.90
2018-10-05T05:17:11.661Z,99.90
2018-10-05T05:19:40.499Z,99.90
2018-10-05T05:22:10.060Z,99.90
2018-10-05T05:24:38.911Z,99.90
2018-10-05T05:27:07.744Z,99.90
2018-10-05T05:29:36.582Z,99.90
2018-10-05T05:32:06.182Z,99.90
2018-10-05T05:34:35.767Z,99.90
2018-10-05T05:37:04.709Z,99.90
2018-10-05T05:39:33.450Z,99.90
2018-10-05T05:42:02.300Z,99.90
2018-10-05T05:44:31.126Z,99.90
2018-10-05T05:47:00.069Z,99.90
2018-10-05T05:49:28.795Z,99.90
2018-10-05T05:51:57.639Z,99.90
2018-10-05T05:54:26.577Z,99.90
2018-10-05T05:56:55.304Z,99.90
2018-10-05T05:59:24.146Z,99.90
2018-10-05T06:01:52.983Z,99.90
2018-10-05T06:04:21.824Z,99.90
2018-10-05T06:06:51.406Z,99.90
2018-10-05T06:09:20.245Z,99.90
2018-10-05T06:11:49.835Z,99.90
2018-10-05T06:14:19.393Z,99.90
2018-10-05T06:16:48.220Z,99.90
2018-10-05T06:19:17.057Z,99.90
2018-10-05T06:21:46.036Z,99.90
2018-10-05T06:24:14.725Z,99.90
2018-10-05T06:26:43.559Z,99.90
2018-10-05T06:29:12.419Z,99.90
2018-10-05T06:31:41.255Z,99.90
2018-10-05T06:34:10.087Z,99.90
2018-10-05T06:36:38.920Z,99.90
2018-10-05T06:39:07.823Z,99.90
2018-10-05T06:41:36.597Z,99.90
2018-10-05T06:44:05.436Z,99.90
2018-10-05T06:46:34.282Z,99.90
2018-10-05T06:49:03.127Z,99.90
2018-10-05T06:51:31.969Z,99.90
2018-10-05T06:54:00.824Z,99.90
2018-10-05T06:56:29.645Z,99.90
2018-10-05T06:58:58.503Z,99.90
2018-10-05T07:01:27.413Z,99.90
2018-10-05T07:03:56.156Z,99.90
2018-10-05T07:06:25.023Z,99.90
2018-10-05T07:08:53.816Z,99.90
2018-10-05T07:11:22.688Z,99.90
2018-10-05T07:13:51.486Z,99.90
2018-10-05T07:16:21.058Z,99.90
2018-10-05T07:18:49.903Z,99.90
2018-10-05T07:21:18.770Z,99.90
2018-10-05T07:23:47.587Z,99.90
2018-10-05T07:26:16.437Z,99.90
2018-10-05T07:28:45.323Z,99.90
2018-10-05T07:31:14.126Z,99.90
2018-10-05T07:33:43.709Z,99.90
2018-10-05T07:36:12.589Z,99.90
2018-10-05T07:38:41.458Z,99.90
2018-10-05T07:41:10.287Z,99.90
2018-10-05T07:43:39.130Z,99.90
2018-10-05T07:46:07.963Z,99.90
2018-10-05T07:48:36.805Z,99.90
2018-10-05T07:51:05.659Z,99.90
2018-10-05T07:53:34.494Z,99.90
2018-10-05T07:56:03.340Z,99.90
2018-10-05T07:58:32.194Z,99.90
2018-10-05T08:01:01.026Z,99.90
2018-10-05T08:03:30.611Z,99.90
2018-10-05T08:06:00.224Z,99.90
2018-10-05T08:08:29.067Z,99.90
2018-10-05T08:10:57.899Z,99.90
2018-10-05T08:13:26.736Z,99.90
2018-10-05T08:16:01.542Z,99.90
2018-10-05T08:18:30.379Z,99.90
2018-10-05T08:20:59.244Z,99.90
2018-10-05T08:23:28.079Z,99.90
2018-10-05T08:25:56.921Z,99.90
2018-10-05T08:28:25.761Z,99.90
2018-10-05T08:30:55.343Z,99.90
2018-10-05T08:33:24.185Z,99.90
2018-10-05T08:35:53.037Z,99.90
2018-10-05T08:38:21.871Z,99.90
2018-10-05T08:40:50.703Z,99.90
2018-10-05T08:43:19.538Z,99.90
2018-10-05T08:45:48.438Z,99.90
2018-10-05T08:48:17.221Z,99.90
2018-10-05T08:50:46.053Z,99.90
2018-10-05T08:53:14.885Z,99.90
2018-10-05T08:55:43.723Z,99.90
2018-10-05T08:58:12.575Z,99.90
2018-10-05T09:00:41.423Z,99.90
2018-10-05T09:03:10.283Z,99.90
2018-10-05T09:05:39.170Z,99.90
2018-10-05T09:08:07.972Z,99.90
2018-10-05T09:10:36.816Z,99.90
2018-10-05T09:13:05.654Z,99.90
2018-10-05T09:15:34.511Z,99.90
2018-10-05T09:18:03.369Z,99.90
2018-10-05T09:20:32.168Z,99.90
2018-10-05T09:23:01.745Z,99.90
2018-10-05T09:25:30.599Z,99.90
2018-10-05T09:27:59.431Z,99.90
2018-10-05T09:30:28.301Z,99.90
2018-10-05T09:32:57.104Z,99.90
2018-10-05T09:35:25.954Z,99.90
2018-10-05T09:37:54.852Z,99.90
2018-10-05T09:40:23.637Z,99.90
2018-10-05T09:42:52.469Z,99.90
2018-10-05T09:45:21.386Z,99.90
2018-10-05T09:47:50.152Z,99.90
2018-10-05T09:50:19.984Z,99.90
2018-10-05T09:52:48.640Z,99.90
2018-10-05T09:55:17.404Z,99.90
2018-10-05T09:57:46.248Z,99.90
2018-10-05T10:00:15.122Z,99.90
2018-10-05T10:02:43.958Z,99.90
2018-10-05T10:05:12.792Z,99.90
2018-10-05T10:07:41.644Z,99.90
2018-10-05T10:10:10.489Z,99.90
2018-10-05T10:12:39.324Z,99.90
2018-10-05T10:15:08.166Z,99.90
2018-10-05T10:17:37.019Z,99.90
2018-10-05T10:20:05.853Z,99.90
2018-10-05T10:22:34.713Z,99.90
2018-10-05T10:25:03.538Z,99.90
2018-10-05T10:27:32.404Z,99.90
2018-10-05T10:30:01.965Z,99.90
2018-10-05T10:32:30.804Z,99.90
2018-10-05T10:34:59.660Z,99.90
2018-10-05T10:37:28.498Z,99.90
2018-10-05T10:39:57.399Z,99.90
2018-10-05T10:44:55.600Z,99.90
2018-10-05T10:47:24.429Z,99.90
2018-10-05T10:49:54.006Z,99.90
2018-10-05T10:52:22.859Z,99.90
2018-10-05T10:54:51.761Z,99.90
2018-10-05T10:57:20.550Z,99.90
2018-10-05T10:59:49.391Z,99.90
2018-10-05T11:02:18.228Z,99.90
2018-10-05T11:04:47.130Z,99.90
2018-10-05T11:07:16.643Z,99.90
2018-10-05T11:09:45.481Z,99.90
2018-10-05T11:12:14.358Z,99.90
2018-10-05T11:14:43.190Z,99.90
2018-10-05T11:17:12.029Z,99.90
2018-10-05T11:19:40.877Z,99.80
2018-10-05T11:22:09.738Z,99.90
2018-10-05T11:24:38.568Z,99.90
2018-10-05T11:27:07.397Z,99.60
2018-10-05T11:29:36.263Z,99.60
2018-10-05T11:32:05.065Z,99.40
2018-10-05T11:34:34.653Z,99.90
2018-10-05T11:37:03.490Z,98.60
2018-10-05T11:39:32.339Z,98.80
2018-10-05T11:42:01.163Z,98.90
2018-10-05T11:44:29.992Z,98.50
2018-10-05T11:46:58.830Z,97.50
2018-10-05T11:49:28.401Z,97.70
2018-10-05T11:51:57.236Z,97.90
2018-10-05T11:54:26.083Z,97.50
2018-10-05T11:56:54.924Z,97.30
2018-10-05T11:59:23.758Z,97.10
2018-10-05T12:01:52.599Z,97.00
2018-10-05T12:04:21.451Z,96.70
2018-10-05T12:06:50.305Z,96.70
2018-10-05T12:09:19.142Z,96.40
2018-10-05T12:11:47.975Z,96.40
2018-10-05T12:14:16.804Z,96.60
2018-10-05T12:16:45.648Z,96.30
2018-10-05T12:19:14.498Z,96.20
2018-10-05T12:21:43.332Z,95.90
2018-10-05T12:24:12.162Z,95.80
2018-10-05T12:26:41.847Z,95.80
2018-10-05T12:29:10.590Z,95.50
2018-10-05T12:31:39.416Z,95.40
2018-10-05T12:34:08.252Z,95.40
2018-10-05T12:36:37.835Z,94.70
2018-10-05T12:41:36.819Z,94.10
2018-10-05T12:44:05.654Z,94.10
2018-10-05T12:46:35.231Z,94.00
2018-10-05T12:49:04.059Z,94.00
2018-10-05T12:51:32.907Z,93.90
2018-10-05T12:54:02.506Z,94.50
2018-10-05T12:56:31.350Z,93.70
2018-10-05T12:59:00.180Z,93.30
2018-10-05T13:01:29.006Z,93.20
2018-10-05T13:03:58.610Z,93.20
2018-10-05T13:06:28.203Z,93.10
2018-10-05T13:08:57.029Z,92.80
2018-10-05T13:11:25.861Z,93.00
2018-10-05T13:13:54.714Z,92.70
2018-10-05T13:16:23.556Z,92.20
2018-10-05T13:18:52.396Z,92.00
2018-10-05T13:21:21.245Z,92.10
2018-10-05T13:23:50.107Z,91.90
2018-10-05T13:26:19.118Z,91.80
2018-10-05T13:28:47.986Z,91.90
2018-10-05T13:31:16.811Z,91.70
2018-10-05T13:33:45.664Z,91.80
2018-10-05T13:36:14.507Z,91.40
2018-10-05T13:38:43.339Z,91.30
2018-10-05T13:41:12.179Z,91.60
2018-10-05T13:43:41.766Z,91.30
2018-10-05T13:46:10.592Z,91.00
2018-10-05T13:48:39.430Z,91.00
2018-10-05T13:51:08.314Z,91.20
2018-10-05T13:53:37.144Z,91.10
2018-10-05T13:56:06.719Z,90.80
2018-10-05T13:58:35.573Z,90.80
2018-10-05T14:01:04.418Z,90.60
2018-10-05T14:03:33.248Z,90.70
2018-10-05T14:06:02.084Z,90.40
2018-10-05T14:08:30.946Z,90.60
2018-10-05T14:10:59.792Z,90.60
2018-10-05T14:13:28.632Z,90.60
2018-10-05T14:15:57.482Z,90.50
2018-10-05T14:18:26.311Z,90.30
2018-10-05T14:20:55.134Z,90.30
2018-10-05T14:23:24.719Z,90.40
2018-10-05T14:25:53.557Z,90.30
2018-10-05T14:28:22.404Z,90.00
2018-10-05T14:30:51.246Z,89.30
2018-10-05T14:33:20.074Z,89.10
2018-10-05T14:35:48.899Z,89.60
2018-10-05T14:38:17.731Z,90.30
2018-10-05T14:40:46.570Z,90.50
2018-10-05T14:43:15.405Z,90.30
2018-10-05T14:45:44.298Z,90.20
2018-10-05T14:48:13.073Z,90.70
2018-10-05T14:50:41.910Z,90.00
2018-10-05T14:53:11.513Z,90.00
2018-10-05T14:55:41.102Z,90.40
2018-10-05T14:58:10.692Z,90.20
2018-10-05T15:00:39.525Z,89.70
2018-10-05T15:03:08.368Z,90.30
2018-10-05T15:05:37.203Z,90.10
2018-10-05T15:08:06.049Z,89.80
2018-10-05T15:10:34.885Z,90.00
2018-10-05T15:13:04.490Z,90.00
2018-10-05T15:15:33.286Z,89.80
2018-10-05T15:18:02.123Z,90.00
2018-10-05T15:20:30.951Z,90.10
2018-10-05T15:23:00.562Z,90.20
2018-10-05T15:25:29.374Z,90.50
2018-10-05T15:27:58.208Z,90.50
2018-10-05T15:30:27.786Z,90.50
2018-10-05T15:32:56.632Z,90.30
2018-10-05T15:35:25.466Z,90.40
2018-10-05T15:37:54.309Z,90.30
2018-10-05T15:40:23.899Z,90.30
2018-10-05T15:42:52.738Z,90.50
2018-10-05T15:45:21.562Z,90.50
2018-10-05T15:47:50.387Z,90.70
2018-10-05T15:50:19.966Z,90.60
2018-10-05T15:52:49.596Z,90.70
2018-10-05T15:55:18.377Z,90.80
2018-10-05T15:57:47.959Z,91.00
2018-10-05T16:00:16.802Z,91.00
2018-10-05T16:02:45.644Z,91.30
2018-10-05T16:05:14.499Z,91.70
2018-10-05T16:07:43.331Z,91.50
2018-10-05T16:12:41.653Z,92.50
2018-10-05T16:15:11.187Z,92.80
2018-10-05T16:17:40.033Z,93.20
2018-10-05T16:20:08.881Z,92.90
2018-10-05T16:22:37.726Z,93.20
2018-10-05T16:25:06.563Z,93.70
2018-10-05T16:27:35.402Z,94.00
2018-10-05T16:30:04.250Z,94.30
2018-10-05T16:32:33.090Z,94.60
2018-10-05T16:35:01.932Z,94.90
2018-10-05T16:37:30.871Z,95.10
2018-10-05T16:39:59.616Z,95.40
2018-10-05T16:42:28.465Z,96.00
2018-10-05T16:44:57.304Z,96.10
2018-10-05T16:47:26.181Z,96.60
2018-10-05T16:49:55.108Z,96.70
2018-10-05T16:52:23.891Z,97.30
2018-10-05T16:54:52.744Z,97.00
2018-10-05T16:57:21.659Z,97.70
2018-10-05T16:59:50.426Z,97.70
2018-10-05T17:02:19.256Z,98.10
2018-10-05T17:04:48.103Z,97.90
2018-10-05T17:07:16.945Z,98.10
2018-10-05T17:09:45.803Z,98.60
2018-10-05T17:12:14.650Z,98.50
2018-10-05T17:14:43.554Z,98.80
2018-10-05T17:17:12.442Z,99.10
2018-10-05T17:19:41.247Z,99.00
2018-10-05T17:22:10.074Z,99.50
2018-10-05T17:24:38.912Z,99.50
2018-10-05T17:27:07.751Z,99.60
2018-10-05T17:29:36.591Z,99.70
2018-10-05T17:32:05.440Z,99.80
2018-10-05T17:34:34.269Z,99.90
2018-10-05T17:37:03.131Z,99.90
2018-10-05T17:39:31.975Z,99.90
2018-10-05T17:42:00.810Z,99.90
2018-10-05T17:44:29.642Z,99.90
2018-10-05T17:46:58.515Z,99.90
2018-10-05T17:51:56.826Z,99.90
2018-10-05T17:54:25.662Z,99.90
2018-10-05T17:56:54.499Z,99.90
2018-10-05T17:59:23.361Z,99.90
2018-10-05T18:01:52.282Z,99.90
2018-10-05T18:04:21.049Z,99.90
2018-10-05T18:06:49.895Z,99.90
2018-10-05T18:09:18.741Z,99.90
2018-10-05T18:11:47.592Z,99.90
2018-10-05T18:14:16.433Z,99.90
2018-10-05T18:16:46.026Z,99.90
2018-10-05T18:19:14.872Z,99.90
2018-10-05T18:21:43.713Z,99.90
2018-10-05T18:24:12.585Z,99.90
2018-10-05T18:26:41.428Z,99.90
2018-10-05T18:29:10.277Z,99.90
2018-10-05T18:31:39.122Z,99.90
2018-10-05T18:34:08.087Z,99.90
2018-10-05T18:36:36.869Z,99.90
2018-10-05T18:39:05.724Z,99.90
2018-10-05T18:41:34.558Z,99.90
2018-10-05T18:44:03.453Z,99.90
2018-10-05T18:46:32.264Z,99.90
2018-10-05T18:49:01.114Z,99.90
2018-10-05T18:51:32.044Z,99.90
2018-10-05T18:54:00.865Z,99.90
2018-10-05T18:56:47.437Z,99.90
2018-10-05T18:59:17.020Z,99.90
2018-10-05T19:01:45.917Z,99.90
2018-10-05T19:04:14.754Z,99.90
2018-10-05T19:06:43.749Z,99.90
2018-10-05T19:09:12.568Z,99.90
2018-10-05T19:11:41.550Z,99.90
2018-10-05T19:14:10.384Z,99.90
2018-10-05T19:16:39.223Z,99.90
2018-10-05T19:19:08.071Z,99.90
2018-10-05T19:21:36.906Z,99.90
2018-10-05T19:24:05.767Z,99.90
2018-10-05T19:26:34.855Z,99.90
2018-10-05T19:29:03.456Z,99.90
2018-10-05T19:31:32.293Z,99.90
2018-10-05T19:34:01.144Z,99.90
2018-10-05T19:36:30.033Z,99.90
2018-10-05T19:38:58.836Z,99.90
2018-10-05T19:41:27.686Z,99.90
2018-10-05T19:43:56.526Z,99.90
2018-10-05T19:46:25.375Z,99.90
2018-10-05T19:48:54.329Z,99.90
2018-10-05T19:51:23.161Z,99.90
2018-10-05T19:53:52.055Z,99.90
2018-10-05T19:56:20.847Z,99.90
2018-10-05T19:58:49.694Z,99.90
2018-10-05T20:01:19.284Z,99.90
2018-10-05T20:03:48.132Z,99.90
2018-10-05T20:06:16.998Z,99.90
2018-10-05T20:08:45.855Z,99.90
2018-10-05T20:11:14.691Z,99.90
2018-10-05T20:13:43.563Z,99.90
2018-10-05T20:16:12.401Z,99.90
2018-10-05T20:18:41.260Z,99.90
2018-10-05T20:21:10.097Z,99.90
2018-10-05T20:23:38.955Z,99.90
2018-10-05T20:26:09.256Z,99.90
2018-10-05T20:28:36.928Z,99.90
2018-10-05T20:31:05.750Z,99.90
2018-10-05T20:33:34.601Z,99.90
2018-10-05T20:36:03.664Z,99.90
2018-10-05T20:38:32.427Z,99.90
2018-10-05T20:41:01.139Z,99.90
2018-10-05T20:43:29.982Z,99.90
2018-10-05T20:45:58.820Z,99.90
2018-10-05T20:48:27.692Z,99.90
2018-10-05T20:50:56.529Z,99.90
2018-10-05T20:53:25.372Z,99.90
2018-10-05T20:55:54.223Z,99.90
2018-10-05T20:58:23.083Z,99.90
2018-10-05T21:00:51.924Z,99.90
2018-10-05T21:03:20.769Z,99.90
2018-10-05T21:05:49.616Z,99.90
2018-10-05T21:08:19.213Z,99.90
2018-10-05T21:10:48.050Z,99.90
2018-10-05T21:13:16.906Z,99.90
2018-10-05T21:15:46.483Z,99.90
2018-10-05T21:18:15.412Z,99.90
2018-10-05T21:20:44.247Z,99.90
2018-10-05T21:23:13.133Z,99.90
2018-10-05T21:25:41.973Z,99.90
2018-10-05T21:28:11.564Z,99.90
2018-10-05T21:30:41.155Z,99.90
2018-10-05T21:33:10.076Z,99.90
2018-10-05T21:35:38.848Z,99.90
2018-10-05T21:38:07.721Z,99.90
2018-10-05T21:40:36.579Z,99.90
2018-10-05T21:43:05.414Z,99.90
2018-10-05T21:45:34.269Z,99.90
2018-10-05T21:48:03.109Z,99.90
2018-10-05T21:50:31.953Z,99.90
2018-10-05T21:53:00.806Z,99.90
2018-10-05T21:55:31.862Z,99.90
2018-10-05T21:58:00.697Z,99.90
2018-10-05T22:00:29.553Z,99.90
2018-10-05T22:02:58.411Z,99.90
2018-10-05T22:05:27.242Z,99.90
2018-10-05T22:07:56.085Z,99.90
2018-10-05T22:10:24.920Z,99.90
2018-10-05T22:12:53.777Z,99.90
2018-10-05T22:15:22.608Z,99.90
2018-10-05T22:17:51.457Z,99.90
2018-10-05T22:20:20.279Z,99.90
2018-10-05T22:22:49.137Z,99.90
2018-10-05T22:25:17.978Z,99.90
2018-10-05T22:27:47.558Z,99.90
2018-10-05T22:30:16.397Z,99.90
2018-10-05T22:32:45.985Z,99.90
2018-10-05T22:35:14.888Z,99.90
2018-10-05T22:37:43.678Z,99.90
2018-10-05T22:40:12.519Z,99.90
2018-10-05T22:42:41.350Z,99.90
2018-10-05T22:45:10.192Z,99.90
2018-10-05T22:47:39.034Z,99.90
2018-10-05T22:50:08.612Z,99.90
2018-10-05T22:52:37.470Z,99.90
2018-10-05T22:55:06.314Z,99.90
2018-10-05T22:57:35.908Z,99.90
2018-10-05T23:00:04.748Z,99.90
2018-10-05T23:02:33.572Z,99.90
2018-10-05T23:05:02.421Z,99.90
2018-10-05T23:07:31.268Z,99.90
2018-10-05T23:10:00.109Z,99.90
2018-10-05T23:12:28.940Z,99.90
2018-10-05T23:14:57.782Z,99.90
2018-10-05T23:17:26.616Z,99.90
2018-10-05T23:19:56.184Z,99.90
2018-10-05T23:22:25.028Z,99.90
2018-10-05T23:24:54.605Z,99.90
2018-10-05T23:27:23.477Z,99.90
2018-10-05T23:29:52.325Z,99.90
2018-10-05T23:32:21.184Z,99.90
2018-10-05T23:34:50.024Z,99.90
2018-10-05T23:37:18.865Z,99.90
2018-10-05T23:39:47.707Z,99.90
2018-10-05T23:42:16.536Z,99.90
2018-10-05T23:44:45.379Z,99.90
2018-10-05T23:47:14.224Z,99.90
2018-10-05T23:49:43.061Z,99.90
2018-10-05T23:52:11.904Z,99.90
2018-10-05T23:54:40.744Z,99.90
2018-10-05T23:57:09.575Z,99.90
2018-10-05T23:59:38.430Z,99.90
